Craddockville, Virginia
Current Conditions -  °F | °C
As of 2:35 PM on Thursday 23 Oct 2014 (Local Time) from KMFV Reporting Station
Overcast Overcast  
Wind Chill: 61°   Ceiling: 3500
Heat Index: 61°   Visibility: 10mi
Dew Point: 45°   Wind: 15mph
Humidity: 55%   Direction: 310°NW
Pressure: 29.8"   Gusts: 23mph
Location:  37.58°N, 75.87°W
Report Text: KMFV 231835Z AUTO 31013G20KT 10SM OVC035 16/07 A2980 RMK AO2
Loading
Personal Weather Stations






























Interactive Weather Map
Tropical Storm Tracking
New forecast layout! Learn more

10-Day Weather Forecast

Advertisements
Track Severe Weather on mobile